createdAt,value
2022-12-01T00:01:10.309Z,17.85
2022-12-01T00:03:37.539Z,18.13
2022-12-01T00:06:07.639Z,18.05
2022-12-01T00:08:35.067Z,18.52
2022-12-01T00:11:10.448Z,19.00
2022-12-01T00:13:37.788Z,21.52
2022-12-01T00:16:16.668Z,19.83
2022-12-01T00:18:44.736Z,18.38
2022-12-01T00:21:15.933Z,19.80
2022-12-01T00:23:47.638Z,20.90
2022-12-01T00:26:15.350Z,20.08
2022-12-01T00:28:42.499Z,19.50
2022-12-01T00:31:13.252Z,19.73
2022-12-01T00:33:40.379Z,18.75
2022-12-01T00:36:07.921Z,19.27
2022-12-01T00:38:35.028Z,20.65
2022-12-01T00:41:02.388Z,18.73
2022-12-01T00:43:29.222Z,19.50
2022-12-01T00:45:56.689Z,23.58
2022-12-01T00:48:23.827Z,20.05
2022-12-01T00:50:52.335Z,21.40
2022-12-01T00:53:19.727Z,21.33
2022-12-01T00:55:46.956Z,22.05
2022-12-01T00:58:13.798Z,19.58
2022-12-01T01:00:40.660Z,20.85
2022-12-01T01:03:08.059Z,20.35
2022-12-01T01:05:39.593Z,21.35
2022-12-01T01:08:08.442Z,20.77
2022-12-01T01:10:39.502Z,20.35
2022-12-01T01:13:06.634Z,20.02
2022-12-01T01:15:33.669Z,19.60
2022-12-01T01:18:00.696Z,21.17
2022-12-01T01:20:27.506Z,21.73
2022-12-01T01:22:54.317Z,20.83
2022-12-01T01:25:21.099Z,19.33
2022-12-01T01:27:47.890Z,21.58
2022-12-01T01:30:15.187Z,22.40
2022-12-01T01:32:42.012Z,19.60
2022-12-01T01:35:08.947Z,21.02
2022-12-01T01:37:35.784Z,21.92
2022-12-01T01:40:02.927Z,20.52
2022-12-01T01:42:29.747Z,22.73
2022-12-01T01:44:58.201Z,21.40
2022-12-01T01:47:35.862Z,24.77
2022-12-01T01:50:09.237Z,21.55
2022-12-01T01:52:41.098Z,24.70
2022-12-01T01:55:08.629Z,22.52
2022-12-01T01:57:36.454Z,22.83
2022-12-01T02:00:09.553Z,24.52
2022-12-01T02:02:40.728Z,24.73
2022-12-01T02:05:11.575Z,23.77
2022-12-01T02:07:40.482Z,22.92
2022-12-01T02:10:09.199Z,23.98
2022-12-01T02:13:19.554Z,24.73
2022-12-01T02:15:52.551Z,26.02
2022-12-01T02:18:53.758Z,25.63
2022-12-01T02:21:26.685Z,22.80
2022-12-01T02:24:08.534Z,23.23
2022-12-01T02:26:50.432Z,25.83
2022-12-01T02:29:23.077Z,25.15
2022-12-01T02:31:55.941Z,22.88
2022-12-01T02:34:41.058Z,25.30
2022-12-01T02:37:32.541Z,25.67
2022-12-01T02:40:19.507Z,23.30
2022-12-01T02:42:59.804Z,26.15
2022-12-01T02:45:40.748Z,25.00
2022-12-01T02:48:24.109Z,25.83
2022-12-01T02:50:52.703Z,26.90
2022-12-01T02:53:20.236Z,25.27
2022-12-01T02:55:53.176Z,26.88
2022-12-01T02:58:20.421Z,27.73
2022-12-01T03:00:59.244Z,29.00
2022-12-01T03:03:47.999Z,30.33
2022-12-01T03:06:35.619Z,28.77
2022-12-01T03:09:02.449Z,27.15
2022-12-01T03:11:50.435Z,29.50
2022-12-01T03:14:36.234Z,25.42
2022-12-01T03:17:08.882Z,29.08
2022-12-01T03:19:41.798Z,28.92
2022-12-01T03:22:15.174Z,25.40
2022-12-01T03:24:46.689Z,27.33
2022-12-01T03:27:17.588Z,26.50
2022-12-01T03:29:47.995Z,28.88
2022-12-01T03:32:25.952Z,25.83
2022-12-01T03:35:16.800Z,26.15
2022-12-01T03:38:15.914Z,27.95
2022-12-01T03:40:44.915Z,26.77
2022-12-01T03:43:16.907Z,27.77
2022-12-01T03:46:25.403Z,27.75
2022-12-01T03:48:55.206Z,26.05
2022-12-01T03:51:29.073Z,26.48
2022-12-01T03:54:02.650Z,27.05
2022-12-01T03:56:36.628Z,25.17
2022-12-01T03:59:06.224Z,27.13
2022-12-01T04:01:36.665Z,29.10
2022-12-01T04:04:14.058Z,28.05
2022-12-01T04:06:44.831Z,27.55
2022-12-01T04:09:11.734Z,29.08
2022-12-01T04:11:56.852Z,29.67
2022-12-01T04:14:23.699Z,28.38
2022-12-01T04:16:50.586Z,28.17
2022-12-01T04:19:17.542Z,27.50
2022-12-01T04:21:44.463Z,27.17
2022-12-01T04:24:12.967Z,28.00
2022-12-01T04:26:40.267Z,29.92
2022-12-01T04:29:10.027Z,29.42
2022-12-01T04:31:37.115Z,28.90
2022-12-01T04:34:04.225Z,29.38
2022-12-01T04:36:33.923Z,29.27
2022-12-01T04:39:01.404Z,27.75
2022-12-01T04:41:28.198Z,28.67
2022-12-01T04:43:55.755Z,28.95
2022-12-01T04:46:23.703Z,27.27
2022-12-01T04:48:50.615Z,30.58
2022-12-01T04:51:17.950Z,28.40
2022-12-01T04:53:44.770Z,25.95
2022-12-01T04:56:11.570Z,25.42
2022-12-01T04:58:38.544Z,28.83
2022-12-01T05:01:11.892Z,25.75
2022-12-01T05:03:40.701Z,27.42
2022-12-01T05:06:13.666Z,27.77
2022-12-01T05:08:41.057Z,26.23
2022-12-01T05:11:11.249Z,26.00
2022-12-01T05:13:40.209Z,27.67
2022-12-01T05:16:18.415Z,27.73
2022-12-01T05:18:50.450Z,28.48
2022-12-01T05:21:18.086Z,24.33
2022-12-01T05:23:45.718Z,27.83
2022-12-01T05:26:12.576Z,25.90
2022-12-01T05:28:40.984Z,26.63
2022-12-01T05:31:07.969Z,28.33
2022-12-01T05:33:34.857Z,28.63
2022-12-01T05:36:01.674Z,30.05
2022-12-01T05:38:28.486Z,27.85
2022-12-01T05:40:56.389Z,28.33
2022-12-01T05:43:28.594Z,27.70
2022-12-01T05:45:57.500Z,27.92
2022-12-01T05:48:24.987Z,28.83
2022-12-01T05:50:51.769Z,30.00
2022-12-01T05:53:19.409Z,29.17
2022-12-01T05:55:46.302Z,30.08
2022-12-01T05:58:13.133Z,27.23
2022-12-01T06:00:45.780Z,28.40
2022-12-01T06:03:14.060Z,29.70
2022-12-01T06:05:41.318Z,31.20
2022-12-01T06:08:08.136Z,27.90
2022-12-01T06:10:34.976Z,27.52
2022-12-01T06:13:01.808Z,28.63
2022-12-01T06:15:28.763Z,28.95
2022-12-01T06:17:59.230Z,26.80
2022-12-01T06:20:26.232Z,28.05
2022-12-01T06:25:27.372Z,27.30
2022-12-01T06:27:58.517Z,28.17
2022-12-01T06:30:26.257Z,29.10
2022-12-01T06:32:53.118Z,25.88
2022-12-01T06:35:20.539Z,28.45
2022-12-01T06:37:47.421Z,26.15
2022-12-01T06:40:14.450Z,28.42
2022-12-01T06:42:41.333Z,25.95
2022-12-01T06:45:08.748Z,26.65
2022-12-01T06:47:35.877Z,27.67
2022-12-01T06:50:03.395Z,26.88
2022-12-01T06:52:30.246Z,29.13
2022-12-01T06:54:57.103Z,26.75
2022-12-01T06:57:24.116Z,26.95
2022-12-01T06:59:51.521Z,27.27
2022-12-01T07:02:18.955Z,26.33
2022-12-01T07:04:45.822Z,27.27
2022-12-01T07:07:12.844Z,26.95
2022-12-01T07:09:40.146Z,25.85
2022-12-01T07:12:07.501Z,26.08
2022-12-01T07:14:34.533Z,27.48
2022-12-01T07:17:01.462Z,26.92
2022-12-01T07:19:28.300Z,25.75
2022-12-01T07:21:55.194Z,24.90
2022-12-01T07:24:22.077Z,24.30
2022-12-01T07:26:48.961Z,25.00
2022-12-01T07:29:15.846Z,26.48
2022-12-01T07:31:42.794Z,25.25
2022-12-01T07:34:12.520Z,25.42
2022-12-01T07:36:39.752Z,26.63
2022-12-01T07:39:09.548Z,25.45
2022-12-01T07:41:36.424Z,28.33
2022-12-01T07:44:03.468Z,24.90
2022-12-01T07:46:30.376Z,25.13
2022-12-01T07:48:58.230Z,24.17
2022-12-01T07:51:25.975Z,24.85
2022-12-01T07:53:54.121Z,25.80
2022-12-01T07:56:22.460Z,26.27
2022-12-01T07:58:49.401Z,26.17
2022-12-01T08:01:21.784Z,25.15
2022-12-01T08:03:50.541Z,26.02
2022-12-01T08:06:18.256Z,26.00
2022-12-01T08:08:45.650Z,25.75
2022-12-01T08:11:15.804Z,25.83
2022-12-01T08:13:43.497Z,26.27
2022-12-01T08:16:13.256Z,25.85
2022-12-01T08:18:41.692Z,27.15
2022-12-01T08:21:11.543Z,24.48
2022-12-01T08:23:38.516Z,25.17
2022-12-01T08:26:08.546Z,24.42
2022-12-01T08:28:37.008Z,25.38
2022-12-01T08:31:35.759Z,23.73
2022-12-01T08:34:05.662Z,27.23
2022-12-01T08:36:34.087Z,25.05
2022-12-01T08:39:01.024Z,27.20
2022-12-01T08:41:28.619Z,26.45
2022-12-01T08:43:58.307Z,25.20
2022-12-01T08:46:33.454Z,28.27
2022-12-01T08:49:01.648Z,24.08
2022-12-01T08:51:28.807Z,24.25
2022-12-01T08:53:57.645Z,25.73
2022-12-01T08:56:45.542Z,24.40
2022-12-01T08:59:12.878Z,25.90
2022-12-01T09:01:55.082Z,25.77
2022-12-01T09:04:24.426Z,25.85
2022-12-01T09:06:52.966Z,22.25
2022-12-01T09:09:29.492Z,25.45
2022-12-01T09:11:56.934Z,23.45
2022-12-01T09:14:24.109Z,24.30
2022-12-01T09:16:51.274Z,25.50
2022-12-01T09:19:24.215Z,24.42
2022-12-01T09:21:52.491Z,23.90
2022-12-01T09:24:19.286Z,24.40
2022-12-01T09:26:46.144Z,23.48
2022-12-01T09:29:15.443Z,23.58
2022-12-01T09:31:43.280Z,22.10
2022-12-01T09:34:18.841Z,23.83
2022-12-01T09:36:46.988Z,23.48
2022-12-01T09:39:18.786Z,23.95
2022-12-01T09:41:58.950Z,23.52
2022-12-01T09:44:55.497Z,23.85
2022-12-01T09:47:31.129Z,22.58
2022-12-01T09:50:24.064Z,22.83
2022-12-01T09:53:17.755Z,23.13
2022-12-01T09:55:44.711Z,22.20
2022-12-01T09:58:21.165Z,23.75
2022-12-01T10:00:50.244Z,22.67
2022-12-01T10:03:32.932Z,20.88
2022-12-01T10:06:27.295Z,21.15
2022-12-01T10:09:12.080Z,22.27
2022-12-01T10:11:42.362Z,19.30
2022-12-01T10:14:20.061Z,21.38
2022-12-01T10:17:12.338Z,21.67
2022-12-01T10:19:52.292Z,21.37
2022-12-01T10:22:45.723Z,21.38
2022-12-01T10:25:15.547Z,20.10
2022-12-01T10:27:55.797Z,20.25
2022-12-01T10:30:24.333Z,20.00
2022-12-01T10:33:22.609Z,19.08
2022-12-01T10:35:49.523Z,20.65
2022-12-01T10:38:37.517Z,20.90
2022-12-01T10:41:11.591Z,21.50
2022-12-01T10:43:40.549Z,19.92
2022-12-01T10:46:35.621Z,20.90
2022-12-01T10:49:10.557Z,20.63
2022-12-01T10:51:57.862Z,19.17
2022-12-01T10:54:39.353Z,19.83
2022-12-01T10:57:15.239Z,21.27
2022-12-01T11:00:06.590Z,20.20
2022-12-01T11:02:34.986Z,19.17
2022-12-01T11:05:05.594Z,20.40
2022-12-01T11:07:43.149Z,21.48
2022-12-01T11:10:29.665Z,20.90
2022-12-01T11:13:15.095Z,21.17
2022-12-01T11:15:51.858Z,20.33
2022-12-01T11:18:27.556Z,20.92
2022-12-01T11:21:15.255Z,20.60
2022-12-01T11:23:50.227Z,18.80
2022-12-01T11:26:31.715Z,17.55
2022-12-01T11:29:01.662Z,17.23
2022-12-01T11:31:43.600Z,17.42
2022-12-01T11:34:26.548Z,16.83
2022-12-01T11:36:55.768Z,16.88
2022-12-01T11:39:39.299Z,16.55
2022-12-01T11:42:28.085Z,16.92
2022-12-01T11:45:08.129Z,17.50
2022-12-01T11:47:35.002Z,17.88
2022-12-01T11:50:24.658Z,16.30
2022-12-01T11:52:51.510Z,14.77
2022-12-01T11:55:27.560Z,15.93
2022-12-01T11:58:03.972Z,16.80
2022-12-01T12:01:00.331Z,16.02
2022-12-01T12:03:41.935Z,17.40
2022-12-01T12:06:53.968Z,15.93
2022-12-01T12:09:40.302Z,15.70
2022-12-01T12:12:23.980Z,14.82
2022-12-01T12:15:09.063Z,15.60
2022-12-01T12:17:47.911Z,15.23
2022-12-01T12:20:41.046Z,14.88
2022-12-01T12:23:27.262Z,15.25
2022-12-01T12:26:06.355Z,14.75
2022-12-01T12:28:45.246Z,16.30
2022-12-01T12:31:18.445Z,16.92
2022-12-01T12:34:07.045Z,15.75
2022-12-01T12:36:54.102Z,14.20
2022-12-01T12:39:59.056Z,15.75
2022-12-01T12:42:46.553Z,15.60
2022-12-01T12:49:03.434Z,16.88
2022-12-01T12:51:35.677Z,16.75
2022-12-01T12:54:20.671Z,17.35
2022-12-01T12:56:50.560Z,16.90
2022-12-01T12:59:25.107Z,16.02
2022-12-01T13:02:26.995Z,16.35
2022-12-01T13:05:10.574Z,16.10
2022-12-01T13:07:53.779Z,18.02
2022-12-01T13:10:39.746Z,18.00
2022-12-01T13:13:37.586Z,17.42
2022-12-01T13:16:10.443Z,17.92
2022-12-01T13:18:46.898Z,16.60
2022-12-01T13:21:20.288Z,16.00
2022-12-01T13:23:48.724Z,16.65
2022-12-01T13:26:17.804Z,16.75
2022-12-01T13:28:49.200Z,15.68
2022-12-01T13:31:18.299Z,17.40
2022-12-01T13:34:00.981Z,17.83
2022-12-01T13:36:46.115Z,18.67
2022-12-01T13:39:23.663Z,18.17
2022-12-01T13:42:24.475Z,16.77
2022-12-01T13:45:06.917Z,15.93
2022-12-01T13:48:01.054Z,17.33
2022-12-01T13:50:47.772Z,17.77
2022-12-01T13:53:22.936Z,17.02
2022-12-01T13:56:14.961Z,16.75
2022-12-01T13:58:46.098Z,17.95
2022-12-01T14:01:22.829Z,17.70
2022-12-01T14:04:11.924Z,18.05
2022-12-01T14:06:49.540Z,16.65
2022-12-01T14:09:24.291Z,17.63
2022-12-01T14:11:58.187Z,18.55
2022-12-01T14:14:28.511Z,21.27
2022-12-01T14:17:02.606Z,19.90
2022-12-01T14:20:08.310Z,19.13
2022-12-01T14:22:46.175Z,19.23
2022-12-01T14:25:22.506Z,19.00
2022-12-01T14:27:53.052Z,18.88
2022-12-01T14:30:38.550Z,19.30
2022-12-01T14:33:39.689Z,16.92
2022-12-01T14:36:13.626Z,17.23
2022-12-01T14:38:42.130Z,18.35
2022-12-01T14:41:10.923Z,17.83
2022-12-01T14:43:58.731Z,19.98
2022-12-01T14:46:28.831Z,18.98
2022-12-01T14:48:55.983Z,17.63
2022-12-01T14:51:28.427Z,19.55
2022-12-01T14:53:57.315Z,18.77
2022-12-01T14:56:25.440Z,18.50
2022-12-01T14:58:58.193Z,18.67
2022-12-01T15:01:32.486Z,18.63
2022-12-01T15:04:02.041Z,19.50
2022-12-01T15:06:30.888Z,18.67
2022-12-01T15:09:33.396Z,20.13
2022-12-01T15:12:04.865Z,21.02
2022-12-01T15:14:34.845Z,19.73
2022-12-01T15:17:05.164Z,20.23
2022-12-01T15:19:41.638Z,21.67
2022-12-01T15:22:17.293Z,20.02
2022-12-01T15:24:44.842Z,20.48
2022-12-01T15:27:28.582Z,21.90
2022-12-01T15:29:56.784Z,21.30
2022-12-01T15:32:24.952Z,20.35
2022-12-01T15:34:54.184Z,21.08
2022-12-01T15:37:23.656Z,21.38
2022-12-01T15:43:22.281Z,21.58
2022-12-01T15:45:57.544Z,19.77
2022-12-01T15:48:34.290Z,20.70
2022-12-01T15:51:18.359Z,22.70
2022-12-01T15:53:55.697Z,20.58
2022-12-01T15:56:29.630Z,21.63
2022-12-01T15:59:16.878Z,23.30
2022-12-01T16:01:44.902Z,24.27
2022-12-01T16:04:21.168Z,22.80
2022-12-01T16:07:01.731Z,24.45
2022-12-01T16:09:35.902Z,25.60
2022-12-01T16:12:03.536Z,22.90
2022-12-01T16:14:32.002Z,24.05
2022-12-01T16:17:00.029Z,23.67
2022-12-01T16:19:32.056Z,22.58
2022-12-01T16:22:10.396Z,22.98
2022-12-01T16:24:53.291Z,23.48
2022-12-01T16:27:29.040Z,23.95
2022-12-01T16:30:04.981Z,23.52
2022-12-01T16:32:41.876Z,22.48
2022-12-01T16:35:30.469Z,23.27
2022-12-01T16:37:58.515Z,25.88
2022-12-01T16:40:25.576Z,24.90
2022-12-01T16:42:52.560Z,23.67
2022-12-01T16:45:20.117Z,23.95
2022-12-01T16:47:49.062Z,25.65
2022-12-01T16:50:20.898Z,24.35
2022-12-01T16:52:47.778Z,25.77
2022-12-01T16:55:24.608Z,24.75
2022-12-01T16:57:51.545Z,23.15
2022-12-01T17:00:18.755Z,24.50
2022-12-01T17:02:45.677Z,27.10
2022-12-01T17:05:12.537Z,25.77
2022-12-01T17:07:39.445Z,26.83
2022-12-01T17:10:06.849Z,25.10
2022-12-01T17:12:33.645Z,25.90
2022-12-01T17:15:00.500Z,25.58
2022-12-01T17:17:29.719Z,25.40
2022-12-01T17:19:56.552Z,26.67
2022-12-01T17:22:23.731Z,27.92
2022-12-01T17:24:50.861Z,26.38
2022-12-01T17:27:17.965Z,27.40
2022-12-01T17:29:46.452Z,26.17
2022-12-01T17:32:14.229Z,29.60
2022-12-01T17:34:41.348Z,27.17
2022-12-01T17:37:08.215Z,25.77
2022-12-01T17:39:34.981Z,24.63
2022-12-01T17:42:01.791Z,28.52
2022-12-01T17:44:28.936Z,27.77
2022-12-01T17:46:55.916Z,25.27
2022-12-01T17:49:22.804Z,26.95
2022-12-01T17:51:49.669Z,26.98
2022-12-01T17:54:16.621Z,27.52
2022-12-01T17:56:43.615Z,25.65
2022-12-01T17:59:10.664Z,25.73
2022-12-01T18:01:37.822Z,25.85
2022-12-01T18:04:04.849Z,26.30
2022-12-01T18:06:31.610Z,30.35
2022-12-01T18:09:00.605Z,27.52
2022-12-01T18:11:27.430Z,29.30
2022-12-01T18:13:54.610Z,29.83
2022-12-01T18:16:24.832Z,29.77
2022-12-01T18:18:52.368Z,27.75
2022-12-01T18:21:22.872Z,27.00
2022-12-01T18:23:51.644Z,26.27
2022-12-01T18:26:21.923Z,29.98
2022-12-01T18:28:54.959Z,29.00
2022-12-01T18:31:21.950Z,31.60
2022-12-01T18:33:48.841Z,36.78
2022-12-01T18:36:19.636Z,31.13
2022-12-01T18:38:47.367Z,31.85
2022-12-01T18:41:15.639Z,30.83
2022-12-01T18:43:42.849Z,29.67
2022-12-01T18:51:20.713Z,27.33
2022-12-01T18:53:47.915Z,27.73
2022-12-01T18:56:15.507Z,26.17
2022-12-01T18:58:42.884Z,25.05
2022-12-01T19:01:25.224Z,26.83
2022-12-01T19:06:19.429Z,28.02
2022-12-01T19:08:46.336Z,29.73
2022-12-01T19:11:13.591Z,31.55
2022-12-01T19:13:40.611Z,27.50
2022-12-01T19:16:15.564Z,27.60
2022-12-01T19:18:42.988Z,26.38
2022-12-01T19:21:12.023Z,26.95
2022-12-01T19:23:39.166Z,27.65
2022-12-01T19:26:12.807Z,28.55
2022-12-01T19:28:42.153Z,28.67
2022-12-01T19:31:13.919Z,28.27
2022-12-01T19:33:41.081Z,27.92
2022-12-01T19:36:10.377Z,25.90
2022-12-01T19:38:37.289Z,26.77
2022-12-01T19:41:04.821Z,28.02
2022-12-01T19:43:33.654Z,27.42
2022-12-01T19:46:08.642Z,28.77
2022-12-01T19:48:36.203Z,28.13
2022-12-01T19:51:03.858Z,29.63
2022-12-01T19:53:33.903Z,24.98
2022-12-01T19:56:04.915Z,27.58
2022-12-01T19:58:35.335Z,25.42
2022-12-01T20:01:04.282Z,25.40
2022-12-01T20:03:31.214Z,26.00
2022-12-01T20:06:03.432Z,26.08
2022-12-01T20:11:03.587Z,24.90
2022-12-01T20:13:35.428Z,28.02
2022-12-01T20:16:08.971Z,26.85
2022-12-01T20:18:36.485Z,30.52
2022-12-01T20:21:07.521Z,25.65
2022-12-01T20:23:35.452Z,28.77
2022-12-01T20:26:04.854Z,28.83
2022-12-01T20:28:32.877Z,28.15
2022-12-01T20:31:00.258Z,27.38
2022-12-01T20:33:27.235Z,27.48
2022-12-01T20:35:54.247Z,29.15
2022-12-01T20:38:27.098Z,27.85
2022-12-01T20:40:54.422Z,28.23
2022-12-01T20:43:21.875Z,26.15
2022-12-01T20:45:48.754Z,28.23
2022-12-01T20:48:16.162Z,27.77
2022-12-01T20:50:43.576Z,28.13
2022-12-01T20:53:10.837Z,29.45
2022-12-01T20:55:38.326Z,28.35
2022-12-01T20:58:08.695Z,29.33
2022-12-01T21:00:41.736Z,35.35
2022-12-01T21:03:08.588Z,28.77
2022-12-01T21:05:39.176Z,29.90
2022-12-01T21:08:08.503Z,26.60
2022-12-01T21:10:37.976Z,29.42
2022-12-01T21:13:42.396Z,29.60
2022-12-01T21:16:18.381Z,27.10
2022-12-01T21:18:55.554Z,27.77
2022-12-01T21:21:27.814Z,27.75
2022-12-01T21:24:17.175Z,27.48
2022-12-01T21:26:52.063Z,27.10
2022-12-01T21:29:21.444Z,30.73
2022-12-01T21:31:51.446Z,31.48
2022-12-01T21:34:24.222Z,31.23
2022-12-01T21:36:54.277Z,32.10
2022-12-01T21:39:23.907Z,29.70
2022-12-01T21:41:56.062Z,31.65
2022-12-01T21:46:55.749Z,29.30
2022-12-01T21:49:41.995Z,28.60
2022-12-01T21:52:18.041Z,30.15
2022-12-01T21:54:44.889Z,30.65
2022-12-01T21:57:43.883Z,29.75
2022-12-01T22:00:26.587Z,28.35
2022-12-01T22:03:07.806Z,31.33
2022-12-01T22:05:42.058Z,30.45
2022-12-01T22:08:24.714Z,29.05
2022-12-01T22:10:54.718Z,31.88
2022-12-01T22:13:33.009Z,30.77
2022-12-01T22:15:59.836Z,27.92
2022-12-01T22:18:37.658Z,28.38
2022-12-01T22:21:33.533Z,31.55
2022-12-01T22:24:09.546Z,26.27
2022-12-01T22:26:38.486Z,29.55
2022-12-01T22:29:28.205Z,29.42
2022-12-01T22:32:13.081Z,27.00
2022-12-01T22:34:44.285Z,27.58
2022-12-01T22:37:21.127Z,29.90
2022-12-01T22:39:52.553Z,29.90
2022-12-01T22:42:31.681Z,27.65
2022-12-01T22:45:23.427Z,28.67
2022-12-01T22:47:51.751Z,28.77
2022-12-01T22:50:28.530Z,27.35
2022-12-01T22:53:16.820Z,28.75
2022-12-01T22:55:43.914Z,28.88
2022-12-01T22:58:32.003Z,27.90
2022-12-01T23:01:07.759Z,26.77
2022-12-01T23:03:34.590Z,29.02
2022-12-01T23:06:01.487Z,26.73
2022-12-01T23:08:28.301Z,27.40
2022-12-01T23:10:55.117Z,26.08
2022-12-01T23:13:23.961Z,28.30
2022-12-01T23:15:53.698Z,28.77
2022-12-01T23:18:25.273Z,28.05
2022-12-01T23:20:55.131Z,22.95
2022-12-01T23:23:30.394Z,29.23
2022-12-01T23:25:58.300Z,29.50
2022-12-01T23:28:25.476Z,28.05
2022-12-01T23:30:57.786Z,27.10
2022-12-01T23:33:28.265Z,27.30
2022-12-01T23:36:04.881Z,28.77
2022-12-01T23:38:38.961Z,27.17
2022-12-01T23:41:12.569Z,27.23
2022-12-01T23:43:42.654Z,27.40
2022-12-01T23:46:22.281Z,25.73
2022-12-01T23:48:53.367Z,25.98
2022-12-01T23:51:28.170Z,25.27
2022-12-01T23:53:56.834Z,26.58
2022-12-01T23:56:25.629Z,27.52
2022-12-01T23:58:55.644Z,26.02
